This is the latest recevied weather packets stored in our database for station/object E22ZMG-3. If no packets are shown the sender has not sent any weather packets the latest 10 day(s).
| Time | Temp. | Humidity | Pressure | Rain* | Wind** | Luminosity | Snow |
|---|---|---|---|---|---|---|---|
| 1777066165 | 33.33° C | 50% | 975 hPa | - | - | 0 W/m² | - |
| 1777065541 | 32.78° C | 50% | 974 hPa | - | - | 0 W/m² | - |
| 1777064917 | 33.33° C | 49% | 974 hPa | - | - | 0 W/m² | - |
| 1777064292 | 32.78° C | 50% | 974 hPa | - | - | 0 W/m² | - |
| 1777063668 | 32.22° C | 51% | 974 hPa | - | - | 0 W/m² | - |
| 1777063043 | 32.22° C | 51% | 974 hPa | - | - | 0 W/m² | - |
| 1777062417 | 31.67° C | 53% | 974 hPa | - | - | 0 W/m² | - |
| 1777061801 | 33.33° C | 49% | 974 hPa | - | - | 0 W/m² | - |
| 1777061790 | 33.33° C | 49% | 974 hPa | - | - | 0 W/m² | - |
| 1777061347 | 32.78° C | 50% | 974 hPa | - | - | 0 W/m² | - |
| 1777060721 | 32.78° C | 50% | 974 hPa | - | - | 0 W/m² | - |
| 1777060096 | 32.22° C | 51% | 974 hPa | - | - | 0 W/m² | - |
| 1777059472 | 33.33° C | 49% | 974 hPa | - | - | 0 W/m² | - |
| 1777058848 | 32.78° C | 51% | 974 hPa | - | - | 0 W/m² | - |
| 1777058223 | 33.33° C | 48% | 974 hPa | - | - | 0 W/m² | - |
| 1777057599 | 33.89° C | 47% | 974 hPa | - | - | 0 W/m² | - |
| 1777056975 | 33.33° C | 48% | 974 hPa | - | - | 0 W/m² | - |
| 1777056350 | 33.33° C | 46% | 974 hPa | - | - | 0 W/m² | - |
| 1777055726 | 33.33° C | 48% | 974 hPa | - | - | 0 W/m² | - |
| 1777055101 | 32.78° C | 48% | 974 hPa | - | - | 0 W/m² | - |
| 1777054476 | 33.89° C | 46% | 974 hPa | - | - | 0 W/m² | - |
| 1777053852 | 32.78° C | 48% | 974 hPa | - | - | 0 W/m² | - |
| 1777053228 | 33.89° C | 46% | 974 hPa | - | - | 0 W/m² | - |
| 1777052603 | 34.44° C | 44% | 974 hPa | - | - | 0 W/m² | - |
| 1777051979 | 33.89° C | 46% | 974 hPa | - | - | 0 W/m² | - |
* Rain since midnight (hover to see other rain measurements)
** Current wind speed in m/s (hover to see current wind gust speed)